Terminal Aerodrome Forecast
Issued by NWS Twin Cities, MN

Home | Current Version | Previous Version | Text Only | Print | Product List | Glossary Off
Versions: 1 2 3 4 5 6 7 8 9 10 11 12 13 14 15 16 17 18 19 20 21 22 23 24 25 26 27 28 29

000
FTUS43 KMPX 021728
TAFMSP
TAF
KMSP 021728Z 0218/0324 18009KT P6SM SCT250
     FM030000 15012KT P6SM SCT050 OVC100
     FM030800 15010KT 4SM -SN OVC020
     FM031000 14009KT 1 1/2SM -SN BR OVC010
     FM031800 31017G25KT 3/4SM -SN BLSN OVC007
     FM032100 31022G32KT 3SM BLSN OVC020=

USA.gov is the U.S. government's official web portal to all federal, state and local government web resources and services.